Time;durP1;ratioP1;P1;durP2;ratioP2;P2;SDS_P1;SDS_P2;PMS_P1;PMS_P2;Temp;Humidity;BMP_temperature;BMP_pressure;BME280_temperature;BME280_humidity;BME280_pressure;Samples;Min_cycle;Max_cycle;Signal;HPM_P1;HPM_P2
2022/04/13 00:01:25;;;;;;;6.20;5.70;;;;;;;7.75;76.49;99829.69;5132820;27;20675;-50
2022/04/13 00:03:54;;;;;;;9.13;6.50;;;;;;;7.71;76.87;99835.75;5132855;27;20190;-51
2022/04/13 00:06:20;;;;;;;14.47;5.80;;;;;;;7.70;76.41;99838.34;5132889;27;20644;-51
2022/04/13 00:08:48;;;;;;;6.50;5.53;;;;;;;7.81;74.61;99837.34;5132548;27;20198;-51
2022/04/13 00:11:18;;;;;;;6.00;5.40;;;;;;;7.72;74.64;99832.28;5132430;27;20323;-51
2022/04/13 00:13:45;;;;;;;6.10;5.60;;;;;;;7.74;74.88;99838.31;5132513;27;20233;-51
2022/04/13 00:16:11;;;;;;;6.80;6.10;;;;;;;7.68;76.00;99830.63;5132127;27;20217;-50
2022/04/13 00:18:39;;;;;;;7.73;6.87;;;;;;;7.50;76.52;99817.94;5132462;27;20212;-50
2022/04/13 00:21:08;;;;;;;6.70;5.70;;;;;;;7.47;77.57;99826.56;5132225;27;20198;-50
2022/04/13 00:23:34;;;;;;;8.63;5.90;;;;;;;7.44;78.34;99825.75;5132171;27;20289;-51
2022/04/13 00:26:01;;;;;;;6.67;5.90;;;;;;;7.43;79.36;99830.06;5132020;27;20234;-50
2022/04/13 00:28:28;;;;;;;6.33;5.83;;;;;;;7.41;79.83;99830.94;5132134;27;20194;-51
2022/04/13 00:30:55;;;;;;;8.30;6.00;;;;;;;7.52;78.67;99823.94;5132423;27;20194;-51
2022/04/13 00:33:22;;;;;;;6.80;5.90;;;;;;;7.65;77.90;99822.94;5132112;27;20662;-50
2022/04/13 00:35:49;;;;;;;6.00;5.50;;;;;;;7.63;77.14;99828.09;5132176;27;20667;-50
2022/04/13 00:38:19;;;;;;;6.07;5.57;;;;;;;7.43;77.07;99798.22;5131760;27;20194;-49
2022/04/13 00:40:46;;;;;;;5.33;4.90;;;;;;;7.52;77.33;99824.78;5132290;27;20296;-50
2022/04/13 00:43:13;;;;;;;10.13;5.77;;;;;;;7.59;75.79;99815.22;5132105;27;20263;-50
2022/04/13 00:45:40;;;;;;;6.93;5.80;;;;;;;7.75;74.86;99821.06;5131989;27;20189;-50
2022/04/13 00:48:08;;;;;;;5.90;4.90;;;;;;;7.65;75.02;99815.19;5131867;27;20560;-51
2022/04/13 00:50:35;;;;;;;5.90;5.40;;;;;;;7.60;75.05;99817.81;5131812;27;20194;-51
2022/04/13 00:53:02;;;;;;;6.63;5.50;;;;;;;7.57;74.71;99819.56;5132027;27;20202;-51
2022/04/13 00:55:32;;;;;;;5.27;4.90;;;;;;;7.56;75.53;99816.13;5132091;27;20675;-51
2022/04/13 00:58:01;;;;;;;5.40;5.00;;;;;;;7.52;76.48;99823.94;5131656;27;20201;-51
2022/04/13 01:00:28;;;;;;;7.30;5.87;;;;;;;7.55;76.96;99818.75;5131701;27;20193;-50
2022/04/13 01:02:55;;;;;;;5.83;5.33;;;;;;;7.42;77.70;99812.00;5131283;27;20680;-50
2022/04/13 01:05:23;;;;;;;6.77;5.80;;;;;;;7.61;77.42;99814.34;5131394;27;20287;-50
2022/04/13 01:07:52;;;;;;;6.33;5.73;;;;;;;7.67;77.13;99808.25;5131607;27;20198;-50
2022/04/13 01:10:20;;;;;;;7.30;5.50;;;;;;;7.72;76.62;99818.53;5131263;27;20205;-51
2022/04/13 01:12:48;;;;;;;5.87;5.33;;;;;;;7.81;76.42;99819.25;5131635;27;20198;-53
2022/04/13 01:15:15;;;;;;;6.17;5.57;;;;;;;7.80;76.13;99820.13;5131303;27;20194;-49
2022/04/13 01:17:45;;;;;;;6.07;5.37;;;;;;;7.91;75.52;99818.25;5131440;27;20584;-48
2022/04/13 01:20:12;;;;;;;6.23;5.73;;;;;;;7.97;74.80;99817.34;5131006;27;20550;-50
2022/04/13 01:22:41;;;;;;;6.30;5.70;;;;;;;8.07;73.44;99811.16;5131578;27;20585;-48
2022/04/13 01:25:09;;;;;;;6.40;5.90;;;;;;;8.00;73.67;99807.81;5131062;27;20202;-51
2022/04/13 01:27:36;;;;;;;6.50;5.90;;;;;;;8.06;73.45;99814.63;5131113;27;20236;-52
2022/04/13 01:30:08;;;;;;;7.47;6.07;;;;;;;7.84;73.86;99789.94;5131166;27;20281;-49
2022/04/13 01:32:35;;;;;;;7.50;6.70;;;;;;;7.99;74.39;99815.59;5131010;27;20193;-52
2022/04/13 01:35:02;;;;;;;6.47;5.87;;;;;;;7.98;73.40;99804.41;5131522;27;20212;-49
2022/04/13 01:37:29;;;;;;;7.27;6.57;;;;;;;8.07;73.74;99810.31;5131220;27;20225;-50
2022/04/13 01:39:57;;;;;;;6.83;6.17;;;;;;;7.98;73.53;99809.56;5131075;27;20194;-48
2022/04/13 01:42:24;;;;;;;8.57;7.00;;;;;;;7.90;74.49;99811.38;5130951;27;20688;-50
2022/04/13 01:44:51;;;;;;;7.90;7.03;;;;;;;7.91;74.65;99810.50;5130858;27;20198;-49
2022/04/13 01:47:18;;;;;;;8.43;7.63;;;;;;;7.94;74.04;99815.66;5130656;27;20650;-50
2022/04/13 01:49:45;;;;;;;10.00;8.07;;;;;;;7.93;74.37;99811.34;5130851;27;20197;-50
2022/04/13 01:52:13;;;;;;;9.93;8.43;;;;;;;7.80;74.18;99801.19;5130827;28;20190;-50
2022/04/13 01:54:40;;;;;;;9.97;8.67;;;;;;;7.80;74.39;99804.63;5130994;28;20185;-50
2022/04/13 01:57:08;;;;;;;10.60;8.80;;;;;;;7.76;75.59;99802.13;5130748;28;20579;-51
2022/04/13 01:59:35;;;;;;;8.90;8.00;;;;;;;7.76;75.26;99800.38;5130610;28;20221;-51
2022/04/13 02:02:04;;;;;;;9.27;8.23;;;;;;;7.77;74.94;99802.09;5131342;28;20586;-49
2022/04/13 02:04:32;;;;;;;13.17;7.73;;;;;;;7.74;75.86;99803.88;5130730;28;20197;-50
2022/04/13 02:06:59;;;;;;;9.80;8.80;;;;;;;7.49;77.79;99803.31;5130822;28;20682;-50
2022/04/13 02:09:26;;;;;;;9.73;8.60;;;;;;;7.43;78.66;99805.97;5130593;28;20216;-50
2022/04/13 02:11:53;;;;;;;11.03;8.83;;;;;;;7.39;79.50;99809.44;5130616;28;20200;-51
2022/04/13 02:14:21;;;;;;;11.07;8.50;;;;;;;7.27;80.53;99808.72;5130903;27;20206;-52
2022/04/13 02:16:48;;;;;;;10.00;8.40;;;;;;;7.18;81.53;99813.97;5134479;27;20217;-49
2022/04/13 02:19:15;;;;;;;9.27;8.37;;;;;;;7.09;82.71;99819.25;5134567;27;20193;-48
2022/04/13 02:21:42;;;;;;;10.43;8.53;;;;;;;7.06;83.03;99813.25;5134567;27;20197;-49
2022/04/13 02:24:09;;;;;;;9.33;8.43;;;;;;;6.97;84.29;99811.63;5134387;27;20197;-49
2022/04/13 02:26:36;;;;;;;12.17;8.53;;;;;;;6.97;84.57;99813.34;5134147;27;20225;-50
2022/04/13 02:29:04;;;;;;;11.43;8.83;;;;;;;7.00;84.93;99814.13;5134551;27;20208;-52
2022/04/13 02:31:32;;;;;;;9.60;8.63;;;;;;;6.95;86.04;99813.34;5134502;27;20236;-50
2022/04/13 02:33:59;;;;;;;9.77;8.77;;;;;;;6.88;86.87;99809.94;5134452;27;20201;-52
2022/04/13 02:36:26;;;;;;;12.30;8.50;;;;;;;6.80;87.33;99813.47;5134401;27;20606;-52
2022/04/13 02:38:54;;;;;;;9.50;8.03;;;;;;;6.76;86.52;99814.38;5134365;27;20194;-51
2022/04/13 02:41:21;;;;;;;9.73;8.73;;;;;;;6.71;86.14;99811.84;5133954;27;20252;-51
2022/04/13 02:43:48;;;;;;;18.10;16.20;;;;;;;6.64;85.76;99814.50;5134465;27;20198;-51
2022/04/13 02:46:15;;;;;;;11.37;9.30;;;;;;;6.67;85.44;99809.28;5133979;27;20186;-51
2022/04/13 02:48:43;;;;;;;9.33;8.43;;;;;;;6.64;85.76;99805.03;5134188;27;20297;-52
2022/04/13 02:51:10;;;;;;;9.03;8.13;;;;;;;6.59;85.99;99804.19;5133956;27;20198;-51
2022/04/13 02:53:37;;;;;;;8.83;7.87;;;;;;;6.50;85.68;99807.72;5134150;27;20189;-51
2022/04/13 02:56:04;;;;;;;8.40;7.63;;;;;;;6.49;85.62;99803.41;5134136;27;20222;-52
2022/04/13 02:58:31;;;;;;;8.10;7.07;;;;;;;6.55;84.62;99799.91;5134372;27;20220;-51
2022/04/13 03:00:58;;;;;;;8.43;7.73;;;;;;;6.48;85.15;99796.56;5133792;27;20204;-52
2022/04/13 03:03:25;;;;;;;9.77;7.37;;;;;;;6.47;84.70;99801.72;5133798;27;20590;-52
2022/04/13 03:05:53;;;;;;;8.87;8.00;;;;;;;6.41;85.50;99791.47;5133280;27;20219;-52
2022/04/13 03:08:20;;;;;;;11.50;8.47;;;;;;;6.39;85.18;99804.34;5133108;27;20284;-52
2022/04/13 03:10:47;;;;;;;7.80;7.00;;;;;;;6.36;85.88;99808.66;5123909;27;20574;-51
2022/04/13 03:13:14;;;;;;;11.87;8.10;;;;;;;6.36;85.30;99808.66;5130248;27;20577;-52
2022/04/13 03:15:41;;;;;;;12.33;8.73;;;;;;;6.31;86.40;99808.72;5131238;27;20216;-51
2022/04/13 03:18:08;;;;;;;9.40;8.43;;;;;;;6.18;87.46;99805.38;5122859;27;20610;-49
2022/04/13 03:20:35;;;;;;;12.80;9.37;;;;;;;6.10;88.67;99806.25;5120923;27;20195;-49
2022/04/13 03:23:04;;;;;;;14.23;9.40;;;;;;;6.08;88.61;99808.00;5120918;27;20190;-49
2022/04/13 03:25:33;;;;;;;9.53;8.53;;;;;;;5.94;88.61;99789.19;5122301;27;20190;-50
2022/04/13 03:28:00;;;;;;;10.07;8.97;;;;;;;6.07;88.10;99811.44;5127517;27;20325;-49
2022/04/13 03:30:27;;;;;;;9.43;8.53;;;;;;;5.98;88.76;99821.81;5129382;27;20204;-49
2022/04/13 03:32:54;;;;;;;12.30;8.97;;;;;;;5.99;88.44;99808.91;5132896;27;20201;-50
2022/04/13 03:35:22;;;;;;;10.73;9.17;;;;;;;6.07;87.61;99819.19;5127737;27;20215;-51
2022/04/13 03:37:49;;;;;;;11.20;9.50;;;;;;;6.09;87.20;99827.78;5091108;28;20293;-51
2022/04/13 03:40:17;;;;;;;10.70;9.20;;;;;;;6.10;87.29;99834.59;5092101;28;20782;-51
2022/04/13 03:42:44;;;;;;;18.83;10.23;;;;;;;6.08;87.53;99828.63;5091461;28;20230;-51
2022/04/13 03:45:13;;;;;;;10.87;8.90;;;;;;;6.05;87.31;99833.78;5116432;27;20214;-51
2022/04/13 03:47:40;;;;;;;12.57;9.23;;;;;;;6.03;87.30;99844.09;5132433;27;20586;-50
2022/04/13 03:50:09;;;;;;;11.40;9.23;;;;;;;6.07;86.83;99837.22;5132671;27;20672;-49
2022/04/13 03:52:36;;;;;;;10.20;9.20;;;;;;;6.06;86.40;99836.38;5131968;27;20224;-49
2022/04/13 03:55:05;;;;;;;12.33;9.40;;;;;;;6.11;85.96;99849.22;5129283;27;20297;-50
2022/04/13 03:57:34;;;;;;;12.83;9.80;;;;;;;6.10;85.83;99839.75;5111276;28;20278;-48
2022/04/13 04:00:01;;;;;;;25.93;10.73;;;;;;;6.12;85.55;99848.34;5111912;28;20214;-51
2022/04/13 04:02:28;;;;;;;14.20;10.03;;;;;;;6.09;86.06;99850.97;5111420;28;20225;-50
2022/04/13 04:04:54;;;;;;;15.23;10.30;;;;;;;6.09;86.37;99853.53;5128002;27;20245;-50
2022/04/13 04:07:21;;;;;;;16.10;9.87;;;;;;;6.14;85.12;99838.88;5131461;27;20218;-50
2022/04/13 04:09:50;;;;;;;14.23;9.73;;;;;;;6.22;85.09;99854.28;5131009;27;20312;-50
2022/04/13 04:12:17;;;;;;;20.10;11.00;;;;;;;6.25;85.60;99856.88;5120423;27;20799;-50
2022/04/13 04:14:45;;;;;;;13.70;10.00;;;;;;;6.24;85.40;99852.56;5120196;27;20198;-50
2022/04/13 04:17:12;;;;;;;17.93;10.63;;;;;;;6.27;85.71;99861.16;5121576;27;20206;-49
2022/04/13 04:19:39;;;;;;;20.90;11.23;;;;;;;6.31;85.69;99867.16;5120718;27;20191;-48
2022/04/13 04:22:06;;;;;;;17.43;11.37;;;;;;;6.39;85.14;99861.09;5116991;27;20222;-48
2022/04/13 04:24:33;;;;;;;15.80;10.70;;;;;;;6.73;82.87;99866.00;5110011;27;20222;-50
2022/04/13 04:27:00;;;;;;;18.53;10.73;;;;;;;7.10;80.92;99876.88;5112684;27;20230;-50
2022/04/13 04:29:27;;;;;;;14.77;10.23;;;;;;;8.04;76.03;99873.25;5114723;27;20262;-51
2022/04/13 04:31:59;;;;;;;18.17;9.87;;;;;;;9.46;68.75;99884.88;5116887;27;20222;-49
2022/04/13 04:34:27;;;;;;;18.53;11.10;;;;;;;10.48;62.70;99886.25;5108765;28;20326;-50
2022/04/13 04:36:54;;;;;;;17.73;10.77;;;;;;;11.36;57.97;99880.63;5114827;27;20226;-50
2022/04/13 04:39:20;;;;;;;19.17;11.10;;;;;;;11.87;55.98;99885.34;5114725;27;20272;-51
2022/04/13 04:41:48;;;;;;;18.65;11.43;;;;;;;12.45;53.65;99892.28;5123157;27;20434;-52
2022/04/13 04:44:15;;;;;;;16.40;10.70;;;;;;;13.71;50.54;99895.97;5121451;27;20229;-52
2022/04/13 04:46:42;;;;;;;15.77;11.07;;;;;;;14.90;46.79;99894.06;5115530;27;20229;-53
2022/04/13 04:49:10;;;;;;;16.90;11.00;;;;;;;15.94;44.17;99896.59;5119606;27;20224;-53
2022/04/13 04:51:37;;;;;;;13.60;11.13;;;;;;;16.06;43.09;99905.66;5120894;27;20760;-53
2022/04/13 04:54:05;;;;;;;23.03;14.10;;;;;;;16.13;42.49;99904.50;5128408;27;20304;-52
2022/04/13 04:56:32;;;;;;;27.30;15.53;;;;;;;17.18;40.87;99901.25;5131085;27;20220;-52
2022/04/13 04:58:59;;;;;;;21.57;11.87;;;;;;;18.60;37.86;99907.84;5131332;27;20719;-52
2022/04/13 05:01:26;;;;;;;17.17;10.60;;;;;;;19.54;35.80;99905.88;5130954;27;20485;-52
2022/04/13 05:03:53;;;;;;;20.00;11.03;;;;;;;19.67;35.35;99919.16;5131211;27;20217;-52
2022/04/13 05:06:23;;;;;;;15.80;10.30;;;;;;;20.09;34.33;99915.69;5121832;27;20223;-52
2022/04/13 05:08:51;;;;;;;11.02;9.27;;;;;;;20.57;33.23;99924.16;5088659;28;20200;-52
2022/04/13 05:11:19;;;;;;;9.68;7.93;;;;;;;21.12;32.35;99918.81;5089274;28;20227;-52
2022/04/13 05:13:46;;;;;;;9.23;8.23;;;;;;;21.91;31.00;99915.25;5089570;28;20203;-51
2022/04/13 05:16:14;;;;;;;11.10;8.50;;;;;;;22.61;29.83;99920.91;5104003;27;20197;-52
2022/04/13 05:18:42;;;;;;;10.57;9.23;;;;;;;22.28;30.07;99913.56;5130519;27;20221;-52
2022/04/13 05:21:09;;;;;;;12.98;8.60;;;;;;;22.36;29.86;99914.72;5130458;27;20209;-52
2022/04/13 05:23:38;;;;;;;8.68;7.22;;;;;;;22.33;28.98;99914.94;5130107;27;20201;-52
2022/04/13 05:26:05;;;;;;;9.93;6.75;;;;;;;22.31;29.09;99922.13;5129983;27;20717;-52
2022/04/13 05:28:32;;;;;;;11.07;6.25;;;;;;;22.17;29.12;99916.97;5130074;27;20196;-53
2022/04/13 05:30:59;;;;;;;8.40;6.90;;;;;;;23.05;28.17;99909.75;5130240;27;20285;-52
2022/04/13 05:33:26;;;;;;;14.55;7.03;;;;;;;23.70;27.47;99914.56;5130180;27;20194;-54
2022/04/13 05:35:53;;;;;;;9.20;6.93;;;;;;;23.85;26.85;99924.81;5130116;27;20281;-53
2022/04/13 05:38:20;;;;;;;9.70;6.85;;;;;;;23.88;27.13;99927.25;5129749;27;20228;-52
2022/04/13 05:40:48;;;;;;;8.02;7.28;;;;;;;23.15;27.69;99930.13;5130405;27;20697;-52
2022/04/13 05:43:15;;;;;;;6.43;5.80;;;;;;;23.49;27.47;99925.78;5124849;27;20272;-52
2022/04/13 05:45:42;;;;;;;10.52;6.20;;;;;;;23.66;27.14;99918.41;5129083;27;20250;-52
2022/04/13 05:48:09;;;;;;;7.00;5.80;;;;;;;23.54;27.18;99925.50;5130159;27;20196;-53
2022/04/13 05:50:36;;;;;;;7.80;5.50;;;;;;;23.59;26.89;99925.97;5120435;27;20199;-53
2022/04/13 05:53:03;;;;;;;7.05;5.63;;;;;;;23.83;26.86;99928.56;5117898;28;20194;-53
2022/04/13 05:55:30;;;;;;;5.53;4.88;;;;;;;24.50;26.24;99925.94;5119104;28;20193;-53
2022/04/13 05:57:59;;;;;;;7.03;5.70;;;;;;;24.47;26.05;99927.06;5123028;28;20596;-53
2022/04/13 06:00:26;;;;;;;5.85;5.35;;;;;;;23.99;26.49;99931.72;5129229;28;20200;-53
2022/04/13 06:02:54;;;;;;;5.97;5.47;;;;;;;23.77;26.35;99935.19;5120162;28;20192;-53
2022/04/13 06:05:22;;;;;;;6.75;5.38;;;;;;;23.75;26.50;99929.16;5119297;28;20228;-53
2022/04/13 06:07:49;;;;;;;5.85;4.95;;;;;;;24.15;26.46;99939.34;5117799;28;20584;-52
2022/04/13 06:10:19;;;;;;;9.50;6.10;;;;;;;23.34;27.16;99940.22;5119074;28;20190;-53
2022/04/13 06:12:47;;;;;;;7.45;6.75;;;;;;;22.80;27.83;99937.16;5120112;28;20653;-53
2022/04/13 06:15:16;;;;;;;9.00;5.97;;;;;;;22.66;27.88;99937.31;5118472;28;20645;-52
2022/04/13 06:17:42;;;;;;;5.82;5.30;;;;;;;22.53;28.08;99939.13;5118261;28;20214;-53
2022/04/13 06:20:10;;;;;;;7.95;5.55;;;;;;;23.46;26.83;99933.16;5119870;28;20200;-53
2022/04/13 06:22:39;;;;;;;5.88;5.03;;;;;;;24.37;25.86;99938.53;5118729;28;20183;-52
2022/04/13 06:25:08;;;;;;;4.57;4.28;;;;;;;23.82;26.39;99943.63;5118023;28;20274;-52
2022/04/13 06:27:35;;;;;;;5.63;5.03;;;;;;;24.30;25.91;99935.50;5118872;28;20214;-54
2022/04/13 06:30:01;;;;;;;7.65;5.38;;;;;;;24.50;25.54;99941.88;5128762;28;20192;-52
2022/04/13 06:32:37;;;;;;;5.78;4.65;;;;;;;24.42;25.82;99945.13;5129471;28;20194;-53
2022/04/13 06:35:05;;;;;;;4.57;4.28;;;;;;;24.61;25.51;99945.34;5129603;28;20700;-52
2022/04/13 06:37:32;;;;;;;4.72;4.25;;;;;;;25.39;24.75;99946.16;5129451;28;20304;-52
2022/04/13 06:39:59;;;;;;;5.18;4.78;;;;;;;25.73;24.23;99950.34;5127615;28;20650;-52
2022/04/13 06:42:26;;;;;;;5.57;4.97;;;;;;;25.17;24.68;99947.91;5119559;28;20201;-53
2022/04/13 06:44:54;;;;;;;5.25;4.82;;;;;;;24.70;25.32;99927.88;5115253;28;20199;-53
2022/04/13 06:47:21;;;;;;;4.93;4.53;;;;;;;25.30;24.90;99953.88;5118280;28;20623;-52
2022/04/13 06:49:50;;;;;;;7.18;4.80;;;;;;;25.14;25.13;99948.16;5119828;28;20607;-53
2022/04/13 06:52:17;;;;;;;5.55;5.15;;;;;;;25.16;24.93;99940.94;5118068;28;20201;-53
2022/04/13 06:54:44;;;;;;;5.25;4.85;;;;;;;24.83;25.07;99948.97;5118011;28;20202;-53
2022/04/13 06:57:11;;;;;;;13.10;4.97;;;;;;;24.82;24.95;99941.97;5119621;28;20194;-53
2022/04/13 06:59:38;;;;;;;5.20;4.80;;;;;;;25.54;24.54;99948.34;5118109;28;20193;-53
2022/04/13 07:02:06;;;;;;;4.93;4.53;;;;;;;25.89;24.08;99945.41;5119755;27;20198;-53
2022/04/13 07:04:34;;;;;;;4.63;4.22;;;;;;;26.49;23.37;99946.41;5118832;27;20198;-53
2022/04/13 07:07:03;;;;;;;5.10;4.20;;;;;;;27.26;22.75;99937.75;5122129;27;20264;-53
2022/04/13 07:09:30;;;;;;;7.20;5.05;;;;;;;27.37;22.29;99925.09;5123119;27;20242;-52
2022/04/13 07:11:57;;;;;;;6.47;5.47;;;;;;;27.85;22.04;99950.91;5121825;27;20197;-52
2022/04/13 07:14:24;;;;;;;6.03;5.38;;;;;;;27.60;22.30;99944.34;5116152;27;20607;-52
2022/04/13 07:16:52;;;;;;;7.47;5.32;;;;;;;27.75;21.90;99937.59;5113321;28;20190;-53
2022/04/13 07:19:19;;;;;;;6.95;5.55;;;;;;;27.62;22.31;99950.38;5112962;28;20224;-53
2022/04/13 07:21:46;;;;;;;6.43;5.63;;;;;;;27.46;22.18;99945.59;5113078;28;20205;-53
2022/04/13 07:24:14;;;;;;;7.20;5.72;;;;;;;27.18;22.33;99953.59;5112472;28;20570;-53
2022/04/13 07:26:41;;;;;;;5.40;4.90;;;;;;;27.44;21.98;99952.88;5112869;28;20240;-54
2022/04/13 07:29:08;;;;;;;6.63;6.13;;;;;;;27.23;21.43;99949.50;5128200;27;20189;-54
2022/04/13 07:31:35;;;;;;;7.53;5.18;;;;;;;27.22;21.97;99955.81;5129765;27;20217;-54
2022/04/13 07:34:02;;;;;;;21.83;5.88;;;;;;;27.66;21.40;99951.75;5133208;27;20198;-53
2022/04/13 07:36:30;;;;;;;8.48;4.70;;;;;;;27.58;21.76;99950.78;5133168;27;20669;-53
2022/04/13 07:38:57;;;;;;;5.25;4.63;;;;;;;27.30;22.10;99948.00;5133237;27;20229;-55
2022/04/13 07:41:25;;;;;;;4.60;4.30;;;;;;;27.23;21.87;99949.50;5129499;27;20195;-53
2022/04/13 07:43:52;;;;;;;6.82;4.65;;;;;;;27.11;21.56;99943.47;5112713;28;20194;-54
2022/04/13 07:46:19;;;;;;;4.43;4.00;;;;;;;27.54;21.17;99946.72;5112339;28;20195;-52
2022/04/13 07:48:46;;;;;;;4.53;3.78;;;;;;;27.16;21.64;99947.56;5112517;28;20582;-53
2022/04/13 07:51:13;;;;;;;4.82;4.13;;;;;;;27.42;21.57;99943.34;5112646;28;20210;-53
2022/04/13 07:53:40;;;;;;;11.68;4.40;;;;;;;28.28;20.53;99947.72;5112132;28;20217;-53
2022/04/13 07:56:07;;;;;;;16.05;5.68;;;;;;;28.59;20.51;99942.06;5107583;28;20244;-53
2022/04/13 07:58:36;;;;;;;10.57;4.95;;;;;;;29.05;20.40;99941.97;5091111;28;20318;-52
2022/04/13 08:01:03;;;;;;;5.88;4.35;;;;;;;29.85;19.44;99942.81;5091791;28;20623;-52
2022/04/13 08:03:30;;;;;;;5.72;4.53;;;;;;;30.21;19.19;99935.53;5091186;28;20219;-53
2022/04/13 08:05:56;;;;;;;4.63;4.32;;;;;;;30.82;18.54;99946.00;5090905;28;20226;-53
2022/04/13 08:08:23;;;;;;;4.78;4.38;;;;;;;30.41;18.66;99930.78;5091067;28;20723;-51
2022/04/13 08:10:51;;;;;;;4.70;4.28;;;;;;;30.57;18.90;99936.25;5110185;28;20693;-53
2022/04/13 08:13:18;;;;;;;4.53;4.13;;;;;;;31.30;18.35;99934.56;5108102;28;20225;-54
2022/04/13 08:15:46;;;;;;;4.63;4.32;;;;;;;30.81;18.13;99938.16;5111771;28;20201;-53
2022/04/13 08:18:13;;;;;;;5.55;4.75;;;;;;;30.31;18.73;99937.09;5111905;28;20692;-53
2022/04/13 08:20:40;;;;;;;5.25;4.70;;;;;;;31.20;18.34;99933.03;5108771;28;20214;-54
2022/04/13 08:23:07;;;;;;;5.20;4.43;;;;;;;31.51;17.94;99934.06;5111190;28;20218;-53
2022/04/13 08:25:34;;;;;;;21.05;6.22;;;;;;;29.95;18.52;99927.50;5111652;28;20245;-53
2022/04/13 08:28:00;;;;;;;7.68;4.93;;;;;;;29.73;18.51;99934.22;5111146;28;20214;-53
2022/04/13 08:30:27;;;;;;;4.65;4.25;;;;;;;29.43;18.89;99930.16;5110860;28;20235;-51
2022/04/13 08:32:56;;;;;;;4.03;3.75;;;;;;;29.54;18.38;99921.03;5111253;28;20222;-54
2022/04/13 08:35:22;;;;;;;6.38;4.65;;;;;;;29.96;18.46;99913.16;5111044;28;20222;-53
2022/04/13 08:37:49;;;;;;;11.05;5.55;;;;;;;30.99;17.90;99918.25;5111089;28;20703;-53
2022/04/13 08:40:19;;;;;;;10.25;5.28;;;;;;;31.89;17.30;99912.91;5111363;28;20309;-53
2022/04/13 08:42:51;;;;;;;11.43;5.13;;;;;;;32.81;17.23;99914.94;5111182;28;20229;-53
2022/04/13 08:45:22;;;;;;;7.35;5.10;;;;;;;31.91;17.38;99914.41;5110734;28;20226;-54
2022/04/13 08:47:56;;;;;;;6.00;5.47;;;;;;;31.17;17.90;99915.44;5110990;28;20631;-53
2022/04/13 08:50:26;;;;;;;5.60;5.25;;;;;;;30.28;18.47;99904.44;5110481;28;20518;-54
2022/04/13 08:52:57;;;;;;;6.07;4.90;;;;;;;30.22;18.57;99900.56;5117474;27;20197;-54
2022/04/13 08:55:25;;;;;;;7.95;5.32;;;;;;;29.27;18.52;99903.22;5117084;27;20635;-53
2022/04/13 08:58:02;;;;;;;6.30;5.55;;;;;;;29.30;18.78;99899.41;5124848;27;20198;-53
2022/04/13 09:00:31;;;;;;;6.22;5.10;;;;;;;29.92;18.49;99895.69;5131433;27;20221;-54
2022/04/13 09:03:17;;;;;;;5.10;4.70;;;;;;;29.66;19.00;99886.84;5131605;27;20285;-54
2022/04/13 09:05:47;;;;;;;10.68;5.32;;;;;;;31.11;17.98;99894.66;5119799;27;20192;-52
2022/04/13 09:08:19;;;;;;;11.38;7.03;;;;;;;31.74;17.85;99886.75;5113428;27;20245;-52
2022/04/13 09:10:47;;;;;;;8.27;5.18;;;;;;;32.25;17.54;99870.38;5111139;28;20209;-52
2022/04/13 09:13:14;;;;;;;5.88;5.15;;;;;;;32.21;17.09;99869.88;5110817;28;20682;-51
2022/04/13 09:15:43;;;;;;;13.13;6.43;;;;;;;32.11;17.00;99866.53;5112857;27;20194;-52
2022/04/13 09:18:11;;;;;;;5.82;5.35;;;;;;;31.90;17.11;99867.09;5116066;27;20697;-53
2022/04/13 09:20:39;;;;;;;5.35;4.95;;;;;;;32.30;16.98;99857.22;5119362;27;20192;-53
2022/04/13 09:23:08;;;;;;;5.68;5.18;;;;;;;32.88;16.75;99850.53;5120854;27;20190;-53
2022/04/13 09:25:36;;;;;;;5.68;4.88;;;;;;;33.65;16.19;99845.81;5130175;27;20198;-51
2022/04/13 09:28:04;;;;;;;7.03;4.78;;;;;;;34.15;15.65;99861.25;5131249;27;20194;-53
2022/04/13 09:30:33;;;;;;;5.93;5.07;;;;;;;33.84;16.21;99854.22;5131412;27;20194;-52
2022/04/13 09:33:02;;;;;;;8.68;5.28;;;;;;;33.11;16.69;99844.13;5131176;27;20693;-52
2022/04/13 09:35:31;;;;;;;6.18;5.53;;;;;;;33.24;16.17;99856.16;5130918;27;20202;-53
2022/04/13 09:38:02;;;;;;;6.72;6.07;;;;;;;33.97;16.13;99850.06;5130972;27;20194;-54
2022/04/13 09:40:35;;;;;;;6.20;5.60;;;;;;;34.45;15.85;99840.50;5131210;27;20196;-53
2022/04/13 09:43:10;;;;;;;5.70;5.22;;;;;;;33.85;16.60;99834.34;5131133;27;20194;-52
2022/04/13 09:45:40;;;;;;;5.15;4.65;;;;;;;34.57;15.69;99834.44;5130895;27;20720;-53
2022/04/13 09:48:09;;;;;;;6.40;5.65;;;;;;;34.65;15.88;99821.88;5131049;27;20243;-53
2022/04/13 09:50:37;;;;;;;6.07;5.53;;;;;;;34.93;15.61;99836.28;5130761;27;20196;-53
2022/04/13 09:53:05;;;;;;;5.53;5.13;;;;;;;34.07;15.71;99826.34;5130989;27;20194;-53
2022/04/13 09:55:38;;;;;;;5.53;5.22;;;;;;;33.79;15.75;99824.31;5130110;28;20246;-53
2022/04/13 09:58:07;;;;;;;4.88;4.55;;;;;;;33.62;15.95;99828.19;5117100;28;20198;-52
2022/04/13 10:00:35;;;;;;;6.10;5.03;;;;;;;32.85;15.94;99816.75;5117878;28;20191;-52
2022/04/13 10:03:13;;;;;;;5.03;4.60;;;;;;;30.21;17.67;99818.56;5119144;28;20194;-53
2022/04/13 10:05:44;;;;;;;5.40;4.45;;;;;;;27.83;19.18;99806.97;5118677;28;20206;-52
2022/04/13 10:08:13;;;;;;;4.22;3.92;;;;;;;26.19;20.72;99813.31;5114231;28;20194;-54
2022/04/13 10:10:45;;;;;;;4.78;4.47;;;;;;;24.17;22.45;99805.59;5117597;28;20197;-51
2022/04/13 10:13:14;;;;;;;4.93;4.20;;;;;;;23.07;23.99;99805.41;5114321;28;20593;-52
2022/04/13 10:15:56;;;;;;;5.97;4.30;;;;;;;22.56;25.05;99794.25;5109695;28;20194;-53
2022/04/13 10:18:24;;;;;;;17.52;5.95;;;;;;;21.97;25.72;99796.75;5109525;28;20237;-52
2022/04/13 10:20:51;;;;;;;7.88;5.10;;;;;;;21.49;26.52;99795.75;5109896;28;20217;-53
2022/04/13 10:23:17;;;;;;;6.38;4.30;;;;;;;21.41;26.75;99798.09;5110058;28;20206;-52
2022/04/13 10:25:46;;;;;;;6.22;5.03;;;;;;;21.05;26.45;99798.75;5112058;28;20910;-52
2022/04/13 10:28:13;;;;;;;4.00;3.70;;;;;;;20.38;26.61;99784.75;5115975;28;20195;-51
2022/04/13 10:30:42;;;;;;;4.22;3.95;;;;;;;20.26;27.30;99788.16;5118822;28;20190;-51
2022/04/13 10:33:11;;;;;;;4.13;3.83;;;;;;;20.17;27.77;99789.59;5119664;28;20194;-51
2022/04/13 10:35:40;;;;;;;4.38;3.25;;;;;;;20.18;27.96;99793.06;5118341;27;20201;-51
2022/04/13 10:38:07;;;;;;;3.65;3.38;;;;;;;20.24;27.33;99788.25;5124529;27;20210;-53
2022/04/13 10:40:35;;;;;;;3.92;3.53;;;;;;;20.03;26.88;99778.22;5122997;27;20194;-52
2022/04/13 10:43:05;;;;;;;6.47;3.75;;;;;;;19.78;27.84;99776.28;5123005;27;20195;-53
2022/04/13 10:45:33;;;;;;;4.13;3.35;;;;;;;19.66;27.76;99774.41;5118808;27;20202;-53
2022/04/13 10:48:04;;;;;;;6.55;3.25;;;;;;;19.56;27.41;99774.13;5122574;27;20194;-53
2022/04/13 10:50:42;;;;;;;4.38;2.90;;;;;;;19.48;27.54;99768.47;5118646;27;20255;-54
2022/04/13 10:53:21;;;;;;;4.60;3.33;;;;;;;19.61;27.48;99760.69;5129485;27;20205;-54
2022/04/13 10:55:59;;;;;;;5.35;3.30;;;;;;;19.75;27.88;99764.13;5120275;27;20634;-53
2022/04/13 10:58:36;;;;;;;3.35;3.10;;;;;;;19.55;27.71;99761.91;5124669;27;20189;-53
2022/04/13 11:01:05;;;;;;;3.50;3.20;;;;;;;19.70;27.41;99754.84;5134059;27;20202;-52
2022/04/13 11:03:35;;;;;;;4.05;3.15;;;;;;;19.68;27.66;99752.31;5133763;27;20198;-53
2022/04/13 11:06:05;;;;;;;3.33;3.03;;;;;;;19.56;28.00;99753.91;5134106;27;20205;-52
2022/04/13 11:08:39;;;;;;;5.30;4.88;;;;;;;19.65;28.17;99744.59;5134012;27;20652;-54
2022/04/13 11:11:06;;;;;;;5.90;4.40;;;;;;;19.92;28.03;99745.50;5133879;27;20200;-53
2022/04/13 11:13:34;;;;;;;4.85;4.28;;;;;;;19.94;28.45;99743.63;5120770;27;20185;-53
2022/04/13 11:16:16;;;;;;;4.57;4.07;;;;;;;19.84;28.35;99737.25;5119018;27;20191;-53
2022/04/13 11:18:43;;;;;;;3.83;3.53;;;;;;;19.91;28.40;99729.78;5119326;27;20218;-52
2022/04/13 11:21:11;;;;;;;4.45;3.50;;;;;;;19.89;28.00;99729.03;5121519;27;20702;-52
2022/04/13 11:23:49;;;;;;;6.07;4.00;;;;;;;19.27;28.08;99710.09;5122793;27;20235;-52
2022/04/13 11:26:17;;;;;;;5.47;3.67;;;;;;;19.38;28.34;99718.16;5122143;27;20218;-52
2022/04/13 11:28:45;;;;;;;3.70;3.40;;;;;;;19.50;28.37;99733.25;5121104;27;20313;-51
2022/04/13 11:31:13;;;;;;;3.95;3.63;;;;;;;19.50;28.84;99722.72;5120990;27;20194;-52
2022/04/13 11:33:51;;;;;;;5.13;3.90;;;;;;;19.38;28.91;99723.44;5118235;27;20190;-52
2022/04/13 11:36:20;;;;;;;4.13;3.83;;;;;;;19.49;28.53;99715.75;5114961;27;20806;-52
2022/04/13 11:38:48;;;;;;;3.65;3.45;;;;;;;19.58;28.58;99720.44;5112494;28;20610;-52